Wind Surf — C6IO6 — position and weather

sailwx.info

Track history (hours):
 
Tides and Currents Weather Stations Pressure Air Temp Water Temp Dewpoint Dewpoint Depression Visibility Wind Speed Wind Dir Waves Ship Positions

Wind Surf

Operator: Holland America Line

Last reported at 2019-Aug-24 06:29 UTC. Time now 2019-Aug-24 06:43 UTC.
Position N 43°32' E 007°01'.

Length 187 m; draft 5.4 m.

Type: Passenger vessel. MMSI: 309242000.

Date/timePositionNaut miles runAvg speedWind from/ knotsBaromVisibWave heightAir tempDewpointWater temp
2019-Aug-24 06:29N 43°32' E 007°01'0 0.0
2019-Aug-24 05:59N 43°32' E 007°01'0 0.0
2019-Aug-24 05:29N 43°32' E 007°01'0 0.0
2019-Aug-24 04:59N 43°32' E 007°01'0 0.1
2019-Aug-24 04:29N 43°32' E 007°01'2 4.6
2019-Aug-24 04:01N 43°30' E 007°01'3 6.1
2019-Aug-24 03:30N 43°29' E 007°05'4 7.8
2019-Aug-24 03:00N 43°29' E 007°10'4 7.8
2019-Aug-24 02:30N 43°29' E 007°16'4 7.1
2019-Aug-24 02:00N 43°29' E 007°21'4 7.5
2019-Aug-24 01:30N 43°29' E 007°26'4 7.7
2019-Aug-24 01:00N 43°29' E 007°31'4 7.7
2019-Aug-24 00:30N 43°29' E 007°36'3 6.9
2019-Aug-24 00:00N 43°32' E 007°38'4 7.8
2019-Aug-23 23:30N 43°35' E 007°35'4 7.8
2019-Aug-23 23:00N 43°38' E 007°32'4 7.3
2019-Aug-23 22:30N 43°41' E 007°29'3 6.0
2019-Aug-23 22:00N 43°44' E 007°26'0 0.0
2019-Aug-23 21:29N 43°44' E 007°26'0 0.0
2019-Aug-23 20:59N 43°44' E 007°26'0 0.0
2019-Aug-23 20:29N 43°44' E 007°26'0 0.0
2019-Aug-23 19:59N 43°44' E 007°26'0 0.1
2019-Aug-23 19:29N 43°44' E 007°27'0 0.0
2019-Aug-23 18:59N 43°44' E 007°27'0 0.0
2019-Aug-23 18:29N 43°44' E 007°27'0 0.0
2019-Aug-23 17:59N 43°44' E 007°27'0 0.0
2019-Aug-23 17:29N 43°44' E 007°27'0 0.0
2019-Aug-23 16:53N 43°44' E 007°27'0 0.1
2019-Aug-23 16:29N 43°44' E 007°26'0 0.0
2019-Aug-23 15:59N 43°44' E 007°26'0 0.0
2019-Aug-23 15:26N 43°44' E 007°26'0 0.0
2019-Aug-23 14:59N 43°44' E 007°26'0 0.1
2019-Aug-23 14:23N 43°44' E 007°26'0 0.0
2019-Aug-23 13:56N 43°44' E 007°26'0 0.1
2019-Aug-23 13:26N 43°44' E 007°26'0 0.1
2019-Aug-23 12:59N 43°44' E 007°26'0 0.2
2019-Aug-23 12:23N 43°44' E 007°26'0 0.0
2019-Aug-23 11:59N 43°44' E 007°26'0 0.0
2019-Aug-23 11:29N 43°44' E 007°26'0 0.1
2019-Aug-23 10:59N 43°44' E 007°26'0 0.0
2019-Aug-23 10:29N 43°44' E 007°26'0 0.0
2019-Aug-23 09:59N 43°44' E 007°26'0 0.1
2019-Aug-23 09:29N 43°44' E 007°27'0 0.1
2019-Aug-23 08:59N 43°44' E 007°26'0 0.1
2019-Aug-23 08:29N 43°44' E 007°26'0 0.0
2019-Aug-23 07:59N 43°44' E 007°26'0 0.0
2019-Aug-23 07:29N 43°44' E 007°26'0 0.0
2019-Aug-23 06:59N 43°44' E 007°26'0 0.0
2019-Aug-23 06:29N 43°44' E 007°26'0 0.0
2019-Aug-23 05:59N 43°44' E 007°26'0 0.0
2019-Aug-23 05:29N 43°44' E 007°26'0 0.4
2019-Aug-23 05:00N 43°44' E 007°27'4 9.0
2019-Aug-23 04:30N 43°44' E 007°33'5 9.6
2019-Aug-23 04:00N 43°44' E 007°40'510.0
2019-Aug-23 03:30N 43°44' E 007°46'5 9.9
2019-Aug-23 03:00N 43°44' E 007°53'510.0
2019-Aug-23 02:30N 43°46' E 007°60'510.2
2019-Aug-23 02:00N 43°48' E 008°06'510.6
2019-Aug-23 01:30N 43°50' E 008°13'510.6
2019-Aug-23 01:00N 43°53' E 008°19'611.0
2019-Aug-23 00:30N 43°55' E 008°26'610.7
2019-Aug-22 23:58N 43°57' E 008°33'510.2
2019-Aug-22 23:30N 44°00' E 008°39'5 9.9
2019-Aug-22 23:00N 44°03' E 008°45'510.0
2019-Aug-22 22:30N 44°05' E 008°51'510.1
2019-Aug-22 22:00N 44°07' E 008°57'510.3
2019-Aug-22 21:30N 44°10' E 009°03'510.2
2019-Aug-22 21:00N 44°13' E 009°09'510.6
2019-Aug-22 20:30N 44°15' E 009°16'3 6.1
2019-Aug-22 20:00N 44°18' E 009°14'0 0.1
2019-Aug-22 19:29N 44°18' E 009°14'0 0.0
2019-Aug-22 18:50N 44°18' E 009°14'0 0.0
2019-Aug-22 17:53N 44°18' E 009°14'0 0.0
2019-Aug-22 17:26N 44°18' E 009°14'0 0.1
2019-Aug-22 16:53N 44°18' E 009°14'0 0.1
2019-Aug-22 16:23N 44°18' E 009°14'0 0.1
2019-Aug-22 15:53N 44°18' E 009°14'0 0.0
2019-Aug-22 15:23N 44°18' E 009°14'0 0.0
2019-Aug-22 14:59N 44°18' E 009°14'0 0.0
2019-Aug-22 14:29N 44°18' E 009°14'0 0.0
2019-Aug-22 13:59N 44°18' E 009°14'0 0.0
2019-Aug-22 13:26N 44°18' E 009°14'0 0.0
2019-Aug-22 12:59N 44°18' E 009°14'0 0.1
2019-Aug-22 12:26N 44°18' E 009°14'0 0.0
2019-Aug-22 11:59N 44°18' E 009°14'0 0.1
2019-Aug-22 11:26N 44°18' E 009°14'0 0.0
2019-Aug-22 10:56N 44°18' E 009°14'0 0.0
2019-Aug-22 10:29N 44°18' E 009°14'0 0.0
2019-Aug-22 09:56N 44°18' E 009°14'0 0.0
2019-Aug-22 09:29N 44°18' E 009°14'0 0.0
2019-Aug-22 08:59N 44°18' E 009°14'0 0.1
2019-Aug-22 08:26N 44°18' E 009°14'0 0.1
2019-Aug-22 07:56N 44°18' E 009°14'0 0.1
2019-Aug-22 07:29N 44°18' E 009°14'0 0.0
2019-Aug-22 06:59N 44°18' E 009°14'0 0.0
2019-Aug-22 06:17N 44°18' E 009°14'0 0.0
2019-Aug-22 05:47N 44°18' E 009°14'0 0.0
2019-Aug-22 05:29N 44°18' E 009°14'0 0.3
2019-Aug-22 05:01N 44°18' E 009°14'3 6.6
2019-Aug-22 04:30N 44°16' E 009°17'4 7.3
2019-Aug-22 04:00N 44°13' E 009°19'4 8.1
2019-Aug-22 03:30N 44°09' E 009°21'4 8.4
2019-Aug-22 03:00N 44°05' E 009°23'4 8.2
2019-Aug-22 02:30N 44°01' E 009°25'4 8.2
2019-Aug-22 02:00N 43°57' E 009°27'4 8.2
2019-Aug-22 01:30N 43°53' E 009°29'4 8.2
2019-Aug-22 01:00N 43°49' E 009°31'4 8.2
2019-Aug-22 00:30N 43°46' E 009°33'4 8.3
2019-Aug-22 00:00N 43°42' E 009°35'4 8.4
2019-Aug-21 23:30N 43°38' E 009°37'4 8.5
2019-Aug-21 23:00N 43°34' E 009°40'4 8.6
2019-Aug-21 22:30N 43°30' E 009°42'4 8.5
2019-Aug-21 22:00N 43°26' E 009°44'4 8.3
2019-Aug-21 21:30N 43°22' E 009°46'4 7.9
2019-Aug-21 21:00N 43°19' E 009°49'4 7.7
2019-Aug-21 20:30N 43°16' E 009°53'4 7.6
2019-Aug-21 20:00N 43°13' E 009°56'4 7.8
2019-Aug-21 19:30N 43°10' E 009°59'4 8.0
2019-Aug-21 19:00N 43°07' E 010°03'4 7.9
2019-Aug-21 18:30N 43°04' E 010°06'4 8.0
2019-Aug-21 18:00N 43°01' E 010°10'4 8.1
2019-Aug-21 17:30N 42°58' E 010°14'4 8.0
2019-Aug-21 17:00N 42°55' E 010°17'4 8.0
2019-Aug-21 16:30N 42°51' E 010°20'3 1.1
2019-Aug-21 14:08N 42°49' E 010°20'0 0.0
2019-Aug-21 12:05N 42°49' E 010°20'0 0.0
2019-Aug-21 11:53N 42°49' E 010°20'0 0.0
2019-Aug-21 11:29N 42°49' E 010°20'0 0.0
2019-Aug-21 10:56N 42°49' E 010°20'0 0.0
2019-Aug-21 10:29N 42°49' E 010°20'0 0.0
2019-Aug-21 09:53N 42°49' E 010°20'0 0.0
2019-Aug-21 09:29N 42°49' E 010°20'0 0.0
2019-Aug-21 08:41N 42°49' E 010°20'0 0.0
2019-Aug-21 08:29N 42°49' E 010°20'0 0.0
2019-Aug-21 07:50N 42°49' E 010°20'0 0.0
2019-Aug-21 07:26N 42°49' E 010°20'0 0.0
2019-Aug-21 06:56N 42°49' E 010°20'0 0.0
2019-Aug-21 06:29N 42°49' E 010°20'0 0.0
2019-Aug-21 05:44N 42°49' E 010°20'0 0.0
2019-Aug-21 05:29N 42°49' E 010°20'1 1.1
2019-Aug-21 05:00N 42°49' E 010°20'3 6.4
2019-Aug-21 04:29N 42°52' E 010°22'3 6.2
2019-Aug-21 03:56N 42°54' E 010°26'3 6.5
2019-Aug-21 03:30N 42°54' E 010°29'3 6.0
2019-Aug-21 03:00N 42°51' E 010°31'3 6.1
2019-Aug-21 02:30N 42°48' E 010°32'3 5.7
2019-Aug-21 02:00N 42°45' E 010°33'3 6.2
2019-Aug-21 01:30N 42°42' E 010°34'3 6.8
2019-Aug-21 01:00N 42°39' E 010°35'3 6.9
2019-Aug-21 00:30N 42°36' E 010°36'3 6.9
2019-Aug-21 00:00N 42°32' E 010°37'4 7.1
2019-Aug-20 23:30N 42°29' E 010°38'4 7.2
2019-Aug-20 23:00N 42°25' E 010°39'3 7.0
2019-Aug-20 22:30N 42°22' E 010°40'3 7.0
2019-Aug-20 22:00N 42°19' E 010°43'4 7.3
2019-Aug-20 21:30N 42°17' E 010°47'4 7.5
2019-Aug-20 21:00N 42°15' E 010°51'4 7.4
2019-Aug-20 20:30N 42°13' E 010°56'4 7.7
2019-Aug-20 19:58N 42°11' E 011°00'4 8.0
2019-Aug-20 19:30N 42°09' E 011°04'4 8.1
2019-Aug-20 19:00N 42°08' E 011°10'5 7.9
2019-Aug-20 18:20N 42°08' E 011°17'3 7.6
2019-Aug-20 17:59N 42°07' E 011°21'4 7.4
2019-Aug-20 17:30N 42°07' E 011°25'4 7.5
2019-Aug-20 17:00N 42°07' E 011°30'4 7.6
2019-Aug-20 16:30N 42°06' E 011°35'8 7.1
2019-Aug-20 15:27N 42°07' E 011°46'2 3.2
2019-Aug-20 14:57N 42°05' E 011°47'0 0.0
2019-Aug-20 14:30N 42°05' E 011°47'0 0.0
2019-Aug-20 13:50N 42°05' E 011°47'0 0.0
2019-Aug-20 13:25N 42°05' E 011°47'0 0.0
2019-Aug-20 10:37N 42°05' E 011°47'0 0.0
2019-Aug-20 06:37N 42°05' E 011°47'0 0.0
2019-Aug-20 06:29N 42°05' E 011°47'0 0.0
2019-Aug-20 05:52N 42°05' E 011°47'0 0.0
2019-Aug-20 05:13N 42°05' E 011°47'1 0.6
2019-Aug-20 04:17N 42°06' E 011°47'14 7.0
2019-Aug-20 02:19N 41°53' E 011°53'411.7
2019-Aug-20 02:00N 41°50' E 011°56'6611.0
2019-Aug-19 19:59N 41°06' E 013°02'611.1
2019-Aug-19 19:28N 41°03' E 013°09'510.6
2019-Aug-19 19:00N 41°00' E 013°14'510.9
2019-Aug-19 18:31N 40°57' E 013°20'611.1
2019-Aug-19 18:01N 40°54' E 013°26'611.1
2019-Aug-19 17:31N 40°51' E 013°32'610.9
2019-Aug-19 16:59N 40°47' E 013°38'511.0
2019-Aug-19 16:31N 40°44' E 013°43'611.1
2019-Aug-19 16:00N 40°40' E 013°48'510.8
2019-Aug-19 15:31N 40°38' E 013°55'511.0
2019-Aug-19 15:01N 40°38' E 014°02'611.0
2019-Aug-19 14:31N 40°38' E 014°09'510.9
2019-Aug-19 14:01N 40°39' E 014°16'5 9.6
2019-Aug-19 13:31N 40°39' E 014°22'1 1.3
2019-Aug-19 13:01N 40°38' E 014°23'0 0.1
2019-Aug-19 12:29N 40°38' E 014°23'0 0.0
2019-Aug-19 11:59N 40°38' E 014°23'0 0.0
2019-Aug-19 11:29N 40°38' E 014°23'0 0.0
2019-Aug-19 10:50N 40°38' E 014°23'0 0.0
2019-Aug-19 10:20N 40°38' E 014°23'0 0.0
2019-Aug-19 09:59N 40°38' E 014°23'0 0.0
2019-Aug-19 09:29N 40°38' E 014°23'0 0.0
2019-Aug-19 08:50N 40°38' E 014°23'0 0.0
2019-Aug-19 08:23N 40°38' E 014°23'0 0.0
2019-Aug-19 07:53N 40°38' E 014°23'0 0.0
2019-Aug-19 07:23N 40°38' E 014°23'0 0.0
2019-Aug-19 06:53N 40°38' E 014°23'0 0.0
2019-Aug-19 06:26N 40°38' E 014°23'0 0.0
2019-Aug-19 05:56N 40°38' E 014°23'0 0.1
2019-Aug-19 05:30N 40°38' E 014°23'3 5.3
2019-Aug-19 05:00N 40°39' E 014°19'610.8
2019-Aug-19 04:26N 40°33' E 014°18'511.9
2019-Aug-19 04:00N 40°28' E 014°20'611.5
2019-Aug-19 03:30N 40°23' E 014°23'611.6
2019-Aug-19 03:00N 40°17' E 014°26'711.7
2019-Aug-19 02:24N 40°11' E 014°29'511.7
2019-Aug-19 01:59N 40°06' E 014°31'611.7
2019-Aug-19 01:30N 40°01' E 014°34'8011.7
2019-Aug-18 18:41N 38°46' E 015°11'211.7
2019-Aug-18 18:30N 38°45' E 015°12'611.7
2019-Aug-18 18:00N 38°40' E 015°17'611.6
2019-Aug-18 17:30N 38°35' E 015°22'611.6
2019-Aug-18 17:01N 38°31' E 015°26'611.5
2019-Aug-18 16:31N 38°27' E 015°31'611.7
2019-Aug-18 16:00N 38°22' E 015°36'611.8
2019-Aug-18 15:30N 38°18' E 015°41'5 9.2
2019-Aug-18 15:00N 38°14' E 015°37'611.5
2019-Aug-18 14:31N 38°08' E 015°36'611.6
2019-Aug-18 14:00N 38°03' E 015°34'612.0
2019-Aug-18 13:30N 37°57' E 015°30'810.1
2019-Aug-18 12:44N 37°52' E 015°23'4 0.5
2019-Aug-18 04:17N 37°50' E 015°27'3 9.9
2019-Aug-18 04:00N 37°50' E 015°31'510.2
2019-Aug-18 03:30N 37°50' E 015°37'510.6
2019-Aug-18 03:00N 37°50' E 015°44'611.2
2019-Aug-18 02:30N 37°50' E 015°51'611.3
2019-Aug-18 02:00N 37°50' E 015°58'3110.1
2019-Aug-17 22:54N 38°09' E 016°29'  
Track history (hours):
 
Tides and Currents Weather Stations Pressure Air Temp Water Temp Dewpoint Dewpoint Depression Visibility Wind Speed Wind Dir Waves Ship Positions

Wind Surf

Operator: Holland America Line

Last reported at 2019-Aug-24 06:29 UTC. Time now 2019-Aug-24 06:43 UTC.
Position N 43°32' E 007°01'.

Length 187 m; draft 5.4 m.

Type: Passenger vessel. MMSI: 309242000.

Date/timePositionNaut miles runAvg speedWind from/ knotsBaromVisibWave heightAir tempDewpointWater temp
2019-Aug-24 06:29N 43°32' E 007°01'0 0.0
2019-Aug-24 05:59N 43°32' E 007°01'0 0.0
2019-Aug-24 05:29N 43°32' E 007°01'0 0.0
2019-Aug-24 04:59N 43°32' E 007°01'0 0.1
2019-Aug-24 04:29N 43°32' E 007°01'2 4.6
2019-Aug-24 04:01N 43°30' E 007°01'3 6.1
2019-Aug-24 03:30N 43°29' E 007°05'4 7.8
2019-Aug-24 03:00N 43°29' E 007°10'4 7.8
2019-Aug-24 02:30N 43°29' E 007°16'4 7.1
2019-Aug-24 02:00N 43°29' E 007°21'4 7.5
2019-Aug-24 01:30N 43°29' E 007°26'4 7.7
2019-Aug-24 01:00N 43°29' E 007°31'4 7.7
2019-Aug-24 00:30N 43°29' E 007°36'3 6.9
2019-Aug-24 00:00N 43°32' E 007°38'4 7.8
2019-Aug-23 23:30N 43°35' E 007°35'4 7.8
2019-Aug-23 23:00N 43°38' E 007°32'4 7.3
2019-Aug-23 22:30N 43°41' E 007°29'3 6.0
2019-Aug-23 22:00N 43°44' E 007°26'0 0.0
2019-Aug-23 21:29N 43°44' E 007°26'0 0.0
2019-Aug-23 20:59N 43°44' E 007°26'0 0.0
2019-Aug-23 20:29N 43°44' E 007°26'0 0.0
2019-Aug-23 19:59N 43°44' E 007°26'0 0.1
2019-Aug-23 19:29N 43°44' E 007°27'0 0.0
2019-Aug-23 18:59N 43°44' E 007°27'0 0.0
2019-Aug-23 18:29N 43°44' E 007°27'0 0.0
2019-Aug-23 17:59N 43°44' E 007°27'0 0.0
2019-Aug-23 17:29N 43°44' E 007°27'0 0.0
2019-Aug-23 16:53N 43°44' E 007°27'0 0.1
2019-Aug-23 16:29N 43°44' E 007°26'0 0.0
2019-Aug-23 15:59N 43°44' E 007°26'0 0.0
2019-Aug-23 15:26N 43°44' E 007°26'0 0.0
2019-Aug-23 14:59N 43°44' E 007°26'0 0.1
2019-Aug-23 14:23N 43°44' E 007°26'0 0.0
2019-Aug-23 13:56N 43°44' E 007°26'0 0.1
2019-Aug-23 13:26N 43°44' E 007°26'0 0.1
2019-Aug-23 12:59N 43°44' E 007°26'0 0.2
2019-Aug-23 12:23N 43°44' E 007°26'0 0.0
2019-Aug-23 11:59N 43°44' E 007°26'0 0.0
2019-Aug-23 11:29N 43°44' E 007°26'0 0.1
2019-Aug-23 10:59N 43°44' E 007°26'0 0.0
2019-Aug-23 10:29N 43°44' E 007°26'0 0.0
2019-Aug-23 09:59N 43°44' E 007°26'0 0.1
2019-Aug-23 09:29N 43°44' E 007°27'0 0.1
2019-Aug-23 08:59N 43°44' E 007°26'0 0.1
2019-Aug-23 08:29N 43°44' E 007°26'0 0.0
2019-Aug-23 07:59N 43°44' E 007°26'0 0.0
2019-Aug-23 07:29N 43°44' E 007°26'0 0.0
2019-Aug-23 06:59N 43°44' E 007°26'0 0.0
2019-Aug-23 06:29N 43°44' E 007°26'0 0.0
2019-Aug-23 05:59N 43°44' E 007°26'0 0.0
2019-Aug-23 05:29N 43°44' E 007°26'0 0.4
2019-Aug-23 05:00N 43°44' E 007°27'4 9.0
2019-Aug-23 04:30N 43°44' E 007°33'5 9.6
2019-Aug-23 04:00N 43°44' E 007°40'510.0
2019-Aug-23 03:30N 43°44' E 007°46'5 9.9
2019-Aug-23 03:00N 43°44' E 007°53'510.0
2019-Aug-23 02:30N 43°46' E 007°60'510.2
2019-Aug-23 02:00N 43°48' E 008°06'510.6
2019-Aug-23 01:30N 43°50' E 008°13'510.6
2019-Aug-23 01:00N 43°53' E 008°19'611.0
2019-Aug-23 00:30N 43°55' E 008°26'610.7
2019-Aug-22 23:58N 43°57' E 008°33'510.2
2019-Aug-22 23:30N 44°00' E 008°39'5 9.9
2019-Aug-22 23:00N 44°03' E 008°45'510.0
2019-Aug-22 22:30N 44°05' E 008°51'510.1
2019-Aug-22 22:00N 44°07' E 008°57'510.3
2019-Aug-22 21:30N 44°10' E 009°03'510.2
2019-Aug-22 21:00N 44°13' E 009°09'510.6
2019-Aug-22 20:30N 44°15' E 009°16'3 6.1
2019-Aug-22 20:00N 44°18' E 009°14'0 0.1
2019-Aug-22 19:29N 44°18' E 009°14'0 0.0
2019-Aug-22 18:50N 44°18' E 009°14'0 0.0
2019-Aug-22 17:53N 44°18' E 009°14'0 0.0
2019-Aug-22 17:26N 44°18' E 009°14'0 0.1
2019-Aug-22 16:53N 44°18' E 009°14'0 0.1
2019-Aug-22 16:23N 44°18' E 009°14'0 0.1
2019-Aug-22 15:53N 44°18' E 009°14'0 0.0
2019-Aug-22 15:23N 44°18' E 009°14'0 0.0
2019-Aug-22 14:59N 44°18' E 009°14'0 0.0
2019-Aug-22 14:29N 44°18' E 009°14'0 0.0
2019-Aug-22 13:59N 44°18' E 009°14'0 0.0
2019-Aug-22 13:26N 44°18' E 009°14'0 0.0
2019-Aug-22 12:59N 44°18' E 009°14'0 0.1
2019-Aug-22 12:26N 44°18' E 009°14'0 0.0
2019-Aug-22 11:59N 44°18' E 009°14'0 0.1
2019-Aug-22 11:26N 44°18' E 009°14'0 0.0
2019-Aug-22 10:56N 44°18' E 009°14'0 0.0
2019-Aug-22 10:29N 44°18' E 009°14'0 0.0
2019-Aug-22 09:56N 44°18' E 009°14'0 0.0
2019-Aug-22 09:29N 44°18' E 009°14'0 0.0
2019-Aug-22 08:59N 44°18' E 009°14'0 0.1
2019-Aug-22 08:26N 44°18' E 009°14'0 0.1
2019-Aug-22 07:56N 44°18' E 009°14'0 0.1
2019-Aug-22 07:29N 44°18' E 009°14'0 0.0
2019-Aug-22 06:59N 44°18' E 009°14'0 0.0
2019-Aug-22 06:17N 44°18' E 009°14'0 0.0
2019-Aug-22 05:47N 44°18' E 009°14'0 0.0
2019-Aug-22 05:29N 44°18' E 009°14'0 0.3
2019-Aug-22 05:01N 44°18' E 009°14'3 6.6
2019-Aug-22 04:30N 44°16' E 009°17'4 7.3
2019-Aug-22 04:00N 44°13' E 009°19'4 8.1
2019-Aug-22 03:30N 44°09' E 009°21'4 8.4
2019-Aug-22 03:00N 44°05' E 009°23'4 8.2
2019-Aug-22 02:30N 44°01' E 009°25'4 8.2
2019-Aug-22 02:00N 43°57' E 009°27'4 8.2
2019-Aug-22 01:30N 43°53' E 009°29'4 8.2
2019-Aug-22 01:00N 43°49' E 009°31'4 8.2
2019-Aug-22 00:30N 43°46' E 009°33'4 8.3
2019-Aug-22 00:00N 43°42' E 009°35'4 8.4
2019-Aug-21 23:30N 43°38' E 009°37'4 8.5
2019-Aug-21 23:00N 43°34' E 009°40'4 8.6
2019-Aug-21 22:30N 43°30' E 009°42'4 8.5
2019-Aug-21 22:00N 43°26' E 009°44'4 8.3
2019-Aug-21 21:30N 43°22' E 009°46'4 7.9
2019-Aug-21 21:00N 43°19' E 009°49'4 7.7
2019-Aug-21 20:30N 43°16' E 009°53'4 7.6
2019-Aug-21 20:00N 43°13' E 009°56'4 7.8
2019-Aug-21 19:30N 43°10' E 009°59'4 8.0
2019-Aug-21 19:00N 43°07' E 010°03'4 7.9
2019-Aug-21 18:30N 43°04' E 010°06'4 8.0
2019-Aug-21 18:00N 43°01' E 010°10'4 8.1
2019-Aug-21 17:30N 42°58' E 010°14'4 8.0
2019-Aug-21 17:00N 42°55' E 010°17'4 8.0
2019-Aug-21 16:30N 42°51' E 010°20'3 1.1
2019-Aug-21 14:08N 42°49' E 010°20'0 0.0
2019-Aug-21 12:05N 42°49' E 010°20'0 0.0
2019-Aug-21 11:53N 42°49' E 010°20'0 0.0
2019-Aug-21 11:29N 42°49' E 010°20'0 0.0
2019-Aug-21 10:56N 42°49' E 010°20'0 0.0
2019-Aug-21 10:29N 42°49' E 010°20'0 0.0
2019-Aug-21 09:53N 42°49' E 010°20'0 0.0
2019-Aug-21 09:29N 42°49' E 010°20'0 0.0
2019-Aug-21 08:41N 42°49' E 010°20'0 0.0
2019-Aug-21 08:29N 42°49' E 010°20'0 0.0
2019-Aug-21 07:50N 42°49' E 010°20'0 0.0
2019-Aug-21 07:26N 42°49' E 010°20'0 0.0
2019-Aug-21 06:56N 42°49' E 010°20'0 0.0
2019-Aug-21 06:29N 42°49' E 010°20'0 0.0
2019-Aug-21 05:44N 42°49' E 010°20'0 0.0
2019-Aug-21 05:29N 42°49' E 010°20'1 1.1
2019-Aug-21 05:00N 42°49' E 010°20'3 6.4
2019-Aug-21 04:29N 42°52' E 010°22'3 6.2
2019-Aug-21 03:56N 42°54' E 010°26'3 6.5
2019-Aug-21 03:30N 42°54' E 010°29'3 6.0
2019-Aug-21 03:00N 42°51' E 010°31'3 6.1
2019-Aug-21 02:30N 42°48' E 010°32'3 5.7
2019-Aug-21 02:00N 42°45' E 010°33'3 6.2
2019-Aug-21 01:30N 42°42' E 010°34'3 6.8
2019-Aug-21 01:00N 42°39' E 010°35'3 6.9
2019-Aug-21 00:30N 42°36' E 010°36'3 6.9
2019-Aug-21 00:00N 42°32' E 010°37'4 7.1
2019-Aug-20 23:30N 42°29' E 010°38'4 7.2
2019-Aug-20 23:00N 42°25' E 010°39'3 7.0
2019-Aug-20 22:30N 42°22' E 010°40'3 7.0
2019-Aug-20 22:00N 42°19' E 010°43'4 7.3
2019-Aug-20 21:30N 42°17' E 010°47'4 7.5
2019-Aug-20 21:00N 42°15' E 010°51'4 7.4
2019-Aug-20 20:30N 42°13' E 010°56'4 7.7
2019-Aug-20 19:58N 42°11' E 011°00'4 8.0
2019-Aug-20 19:30N 42°09' E 011°04'4 8.1
2019-Aug-20 19:00N 42°08' E 011°10'5 7.9
2019-Aug-20 18:20N 42°08' E 011°17'3 7.6
2019-Aug-20 17:59N 42°07' E 011°21'4 7.4
2019-Aug-20 17:30N 42°07' E 011°25'4 7.5
2019-Aug-20 17:00N 42°07' E 011°30'4 7.6
2019-Aug-20 16:30N 42°06' E 011°35'8 7.1
2019-Aug-20 15:27N 42°07' E 011°46'2 3.2
2019-Aug-20 14:57N 42°05' E 011°47'0 0.0
2019-Aug-20 14:30N 42°05' E 011°47'0 0.0
2019-Aug-20 13:50N 42°05' E 011°47'0 0.0
2019-Aug-20 13:25N 42°05' E 011°47'0 0.0
2019-Aug-20 10:37N 42°05' E 011°47'0 0.0
2019-Aug-20 06:37N 42°05' E 011°47'0 0.0
2019-Aug-20 06:29N 42°05' E 011°47'0 0.0
2019-Aug-20 05:52N 42°05' E 011°47'0 0.0
2019-Aug-20 05:13N 42°05' E 011°47'1 0.6
2019-Aug-20 04:17N 42°06' E 011°47'14 7.0
2019-Aug-20 02:19N 41°53' E 011°53'411.7
2019-Aug-20 02:00N 41°50' E 011°56'6611.0
2019-Aug-19 19:59N 41°06' E 013°02'611.1
2019-Aug-19 19:28N 41°03' E 013°09'510.6
2019-Aug-19 19:00N 41°00' E 013°14'510.9
2019-Aug-19 18:31N 40°57' E 013°20'611.1
2019-Aug-19 18:01N 40°54' E 013°26'611.1
2019-Aug-19 17:31N 40°51' E 013°32'610.9
2019-Aug-19 16:59N 40°47' E 013°38'511.0
2019-Aug-19 16:31N 40°44' E 013°43'611.1
2019-Aug-19 16:00N 40°40' E 013°48'510.8
2019-Aug-19 15:31N 40°38' E 013°55'511.0
2019-Aug-19 15:01N 40°38' E 014°02'611.0
2019-Aug-19 14:31N 40°38' E 014°09'510.9
2019-Aug-19 14:01N 40°39' E 014°16'5 9.6
2019-Aug-19 13:31N 40°39' E 014°22'1 1.3
2019-Aug-19 13:01N 40°38' E 014°23'0 0.1
2019-Aug-19 12:29N 40°38' E 014°23'0 0.0
2019-Aug-19 11:59N 40°38' E 014°23'0 0.0
2019-Aug-19 11:29N 40°38' E 014°23'0 0.0
2019-Aug-19 10:50N 40°38' E 014°23'0 0.0
2019-Aug-19 10:20N 40°38' E 014°23'0 0.0
2019-Aug-19 09:59N 40°38' E 014°23'0 0.0
2019-Aug-19 09:29N 40°38' E 014°23'0 0.0
2019-Aug-19 08:50N 40°38' E 014°23'0 0.0
2019-Aug-19 08:23N 40°38' E 014°23'0 0.0
2019-Aug-19 07:53N 40°38' E 014°23'0 0.0
2019-Aug-19 07:23N 40°38' E 014°23'0 0.0
2019-Aug-19 06:53N 40°38' E 014°23'0 0.0
2019-Aug-19 06:26N 40°38' E 014°23'0 0.0
2019-Aug-19 05:56N 40°38' E 014°23'0 0.1
2019-Aug-19 05:30N 40°38' E 014°23'3 5.3
2019-Aug-19 05:00N 40°39' E 014°19'610.8
2019-Aug-19 04:26N 40°33' E 014°18'511.9
2019-Aug-19 04:00N 40°28' E 014°20'611.5
2019-Aug-19 03:30N 40°23' E 014°23'611.6
2019-Aug-19 03:00N 40°17' E 014°26'711.7
2019-Aug-19 02:24N 40°11' E 014°29'511.7
2019-Aug-19 01:59N 40°06' E 014°31'611.7
2019-Aug-19 01:30N 40°01' E 014°34'8011.7
2019-Aug-18 18:41N 38°46' E 015°11'211.7
2019-Aug-18 18:30N 38°45' E 015°12'611.7
2019-Aug-18 18:00N 38°40' E 015°17'611.6
2019-Aug-18 17:30N 38°35' E 015°22'611.6
2019-Aug-18 17:01N 38°31' E 015°26'611.5
2019-Aug-18 16:31N 38°27' E 015°31'611.7
2019-Aug-18 16:00N 38°22' E 015°36'611.8
2019-Aug-18 15:30N 38°18' E 015°41'5 9.2
2019-Aug-18 15:00N 38°14' E 015°37'611.5
2019-Aug-18 14:31N 38°08' E 015°36'611.6
2019-Aug-18 14:00N 38°03' E 015°34'612.0
2019-Aug-18 13:30N 37°57' E 015°30'810.1
2019-Aug-18 12:44N 37°52' E 015°23'4 0.5
2019-Aug-18 04:17N 37°50' E 015°27'3 9.9
2019-Aug-18 04:00N 37°50' E 015°31'510.2
2019-Aug-18 03:30N 37°50' E 015°37'510.6
2019-Aug-18 03:00N 37°50' E 015°44'611.2
2019-Aug-18 02:30N 37°50' E 015°51'611.3
2019-Aug-18 02:00N 37°50' E 015°58'3110.1
2019-Aug-17 22:54N 38°09' E 016°29'  

Dump ship's entire track history